createdAt,value
2022-09-28T00:03:18.295Z,10.03
2022-09-28T00:08:21.035Z,9.93
2022-09-28T00:13:24.583Z,9.75
2022-09-28T00:18:28.870Z,9.66
2022-09-28T00:23:31.708Z,9.57
2022-09-28T00:28:34.460Z,9.56
2022-09-28T00:33:40.539Z,9.46
2022-09-28T00:38:43.355Z,9.34
2022-09-28T00:43:46.229Z,9.31
2022-09-28T00:48:56.088Z,9.21
2022-09-28T00:54:00.675Z,9.12
2022-09-28T00:59:04.700Z,9.06
2022-09-28T01:04:08.794Z,9.01
2022-09-28T01:09:13.275Z,8.96
2022-09-28T01:14:18.009Z,8.94
2022-09-28T01:19:44.977Z,8.91
2022-09-28T01:24:49.122Z,8.87
2022-09-28T01:30:00.375Z,8.86
2022-09-28T01:35:09.068Z,8.86
2022-09-28T01:40:14.797Z,8.84
2022-09-28T01:45:24.657Z,8.87
2022-09-28T01:50:31.350Z,8.80
2022-09-28T01:55:38.170Z,8.78
2022-09-28T02:00:46.993Z,8.77
2022-09-28T02:05:55.821Z,8.75
2022-09-28T02:11:05.215Z,8.81
2022-09-28T02:16:15.658Z,8.83
2022-09-28T02:21:24.882Z,8.90
2022-09-28T02:26:32.914Z,8.92
2022-09-28T02:31:37.265Z,8.91
2022-09-28T02:36:40.142Z,8.94
2022-09-28T02:42:02.854Z,8.96
2022-09-28T02:47:17.233Z,8.95
2022-09-28T02:52:42.565Z,8.94
2022-09-28T02:58:02.154Z,8.94
2022-09-28T03:03:13.757Z,8.96
2022-09-28T03:08:24.941Z,9.00
2022-09-28T03:13:29.445Z,9.02
2022-09-28T03:18:33.560Z,9.02
2022-09-28T03:23:36.242Z,9.01
2022-09-28T03:28:39.213Z,9.01
2022-09-28T03:33:43.303Z,9.07
2022-09-28T03:38:46.057Z,9.11
2022-09-28T03:43:48.814Z,9.10
2022-09-28T03:48:52.880Z,9.16
2022-09-28T03:53:58.253Z,9.17
2022-09-28T03:59:01.014Z,9.17
2022-09-28T04:04:05.365Z,9.23
2022-09-28T04:09:08.190Z,9.31
2022-09-28T04:14:10.932Z,9.35
2022-09-28T04:19:15.454Z,9.37
2022-09-28T04:24:18.476Z,9.42
2022-09-28T04:29:21.293Z,9.53
2022-09-28T04:34:25.573Z,9.62
2022-09-28T04:39:28.369Z,9.68
2022-09-28T04:44:31.067Z,9.74
2022-09-28T04:49:37.052Z,9.76
2022-09-28T04:54:39.737Z,9.81
2022-09-28T04:59:42.528Z,9.84
2022-09-28T05:04:46.600Z,9.88
2022-09-28T05:09:49.307Z,9.91
2022-09-28T05:14:51.996Z,9.99
2022-09-28T05:19:56.033Z,9.99
2022-09-28T05:25:00.262Z,10.03
2022-09-28T05:30:02.950Z,10.13
2022-09-28T05:35:08.215Z,10.10
2022-09-28T05:40:12.305Z,10.13
2022-09-28T05:45:15.342Z,10.15
2022-09-28T05:50:19.432Z,10.19
2022-09-28T05:55:22.162Z,10.20
2022-09-28T06:00:24.883Z,10.22
2022-09-28T06:05:31.178Z,10.31
2022-09-28T06:10:34.690Z,10.38
2022-09-28T06:15:37.953Z,10.43
2022-09-28T06:20:42.654Z,10.45
2022-09-28T06:25:45.353Z,10.48
2022-09-28T06:30:48.290Z,10.52
2022-09-28T06:35:52.426Z,10.54
2022-09-28T06:40:55.206Z,10.64
2022-09-28T06:45:58.114Z,10.70
2022-09-28T06:51:03.330Z,10.69
2022-09-28T06:56:07.196Z,10.60
2022-09-28T07:01:12.040Z,10.66
2022-09-28T07:06:16.364Z,10.71
2022-09-28T07:11:20.494Z,10.74
2022-09-28T07:16:27.449Z,10.74
2022-09-28T07:21:33.844Z,10.77
2022-09-28T07:26:36.585Z,10.85
2022-09-28T07:31:39.394Z,10.96
2022-09-28T07:36:43.474Z,10.99
2022-09-28T07:41:46.228Z,11.08
2022-09-28T07:46:48.951Z,11.17
2022-09-28T07:51:53.031Z,11.27
2022-09-28T07:56:55.738Z,11.22
2022-09-28T08:01:58.966Z,11.21
2022-09-28T08:07:03.064Z,11.25
2022-09-28T08:12:05.986Z,11.38
2022-09-28T08:17:08.874Z,11.47
2022-09-28T08:22:13.438Z,11.53
2022-09-28T08:27:18.349Z,11.60
2022-09-28T08:32:21.520Z,11.65
2022-09-28T08:37:27.270Z,11.64
2022-09-28T08:42:36.800Z,11.62
2022-09-28T08:48:07.870Z,11.60
2022-09-28T08:53:28.827Z,11.65
2022-09-28T08:58:37.116Z,11.71
2022-09-28T09:03:41.896Z,11.77
2022-09-28T09:08:57.265Z,11.92
2022-09-28T09:14:16.036Z,12.05
2022-09-28T09:19:29.683Z,12.19
2022-09-28T09:24:43.190Z,12.27
2022-09-28T09:30:03.616Z,12.34
2022-09-28T09:35:27.850Z,12.31
2022-09-28T09:40:53.714Z,12.31
2022-09-28T09:46:08.074Z,12.41
2022-09-28T09:51:17.734Z,12.54
2022-09-28T09:56:28.178Z,12.65
2022-09-28T10:01:35.672Z,12.75
2022-09-28T10:06:40.004Z,12.79
2022-09-28T10:11:47.662Z,12.86
2022-09-28T10:16:52.562Z,12.95
2022-09-28T10:21:55.097Z,12.94
2022-09-28T10:27:05.550Z,12.99
2022-09-28T10:32:21.114Z,12.99
2022-09-28T10:37:24.303Z,12.96
2022-09-28T10:42:32.077Z,12.90
2022-09-28T10:47:36.609Z,12.85
2022-09-28T10:52:41.553Z,12.86
2022-09-28T10:57:45.621Z,12.87
2022-09-28T11:02:48.638Z,12.99
2022-09-28T11:07:52.322Z,13.10
2022-09-28T11:12:57.614Z,13.19
2022-09-28T11:18:21.187Z,13.24
2022-09-28T11:23:31.821Z,13.32
2022-09-28T11:28:38.510Z,13.34
2022-09-28T11:33:44.784Z,13.41
2022-09-28T11:39:01.650Z,13.55
2022-09-28T11:44:20.569Z,13.77
2022-09-28T11:49:31.519Z,13.87
2022-09-28T11:54:41.646Z,13.90
2022-09-28T11:59:53.769Z,13.91
2022-09-28T12:05:00.294Z,13.92
2022-09-28T12:10:12.417Z,13.86
2022-09-28T12:15:20.062Z,13.86
2022-09-28T12:20:27.268Z,13.81
2022-09-28T12:25:38.668Z,13.70
2022-09-28T12:30:44.894Z,13.54
2022-09-28T12:36:03.782Z,13.53
2022-09-28T12:41:22.353Z,13.49
2022-09-28T12:46:43.092Z,13.50
2022-09-28T12:51:52.215Z,13.44
2022-09-28T12:57:07.947Z,13.41
2022-09-28T13:02:51.140Z,13.39
2022-09-28T13:08:02.500Z,13.35
2022-09-28T13:13:21.719Z,13.33
2022-09-28T13:18:33.573Z,13.31
2022-09-28T13:23:41.571Z,13.28
2022-09-28T13:28:47.302Z,13.33
2022-09-28T13:33:53.208Z,13.33
2022-09-28T13:38:57.195Z,13.22
2022-09-28T13:44:24.881Z,13.12
2022-09-28T13:49:41.433Z,13.13
2022-09-28T13:55:03.410Z,13.17
2022-09-28T14:00:18.361Z,13.22
2022-09-28T14:06:04.548Z,13.15
2022-09-28T14:11:52.350Z,13.19
2022-09-28T14:17:25.509Z,13.26
2022-09-28T14:22:36.626Z,13.20
2022-09-28T14:28:01.210Z,13.09
2022-09-28T14:33:17.594Z,13.05
2022-09-28T14:38:42.615Z,13.04
2022-09-28T14:44:06.505Z,12.99
2022-09-28T14:49:42.832Z,13.05
2022-09-28T14:54:53.142Z,13.21
2022-09-28T14:59:59.541Z,13.30
2022-09-28T15:05:14.222Z,13.31
2022-09-28T15:10:27.879Z,13.44
2022-09-28T15:15:36.582Z,13.57
2022-09-28T15:20:43.553Z,13.66
2022-09-28T15:25:52.832Z,13.69
2022-09-28T15:31:01.323Z,13.67
2022-09-28T15:36:08.426Z,13.59
2022-09-28T15:41:12.598Z,13.51
2022-09-28T15:46:20.711Z,13.43
2022-09-28T15:51:25.617Z,13.39
2022-09-28T15:56:29.907Z,13.38
2022-09-28T16:01:37.134Z,13.50
2022-09-28T16:06:41.700Z,13.41
2022-09-28T16:11:50.826Z,13.33
2022-09-28T16:16:59.714Z,13.24
2022-09-28T16:22:06.457Z,13.13
2022-09-28T16:27:26.648Z,13.10
2022-09-28T16:32:38.269Z,13.08
2022-09-28T16:37:42.780Z,12.93
2022-09-28T16:42:49.291Z,12.73
2022-09-28T16:47:53.044Z,12.75
2022-09-28T16:53:20.807Z,12.84
2022-09-28T16:58:27.142Z,12.76
2022-09-28T17:03:30.390Z,12.75
2022-09-28T17:08:35.709Z,12.81
2022-09-28T17:13:39.822Z,12.79
2022-09-28T17:18:42.738Z,12.67
2022-09-28T17:23:46.703Z,12.65
2022-09-28T17:28:50.906Z,12.60
2022-09-28T17:33:54.190Z,12.53
2022-09-28T17:38:57.218Z,12.56
2022-09-28T17:44:03.239Z,12.59
2022-09-28T17:49:07.722Z,12.55
2022-09-28T17:54:11.031Z,12.49
2022-09-28T17:59:18.522Z,12.47
2022-09-28T18:04:50.121Z,12.49
2022-09-28T18:09:44.247Z,12.53
2022-09-28T18:14:48.462Z,12.48
2022-09-28T18:19:51.523Z,12.45
2022-09-28T18:24:54.242Z,12.44
2022-09-28T18:29:58.324Z,12.44
2022-09-28T18:35:01.044Z,12.43
2022-09-28T18:40:03.912Z,12.39
2022-09-28T18:45:11.183Z,12.30
2022-09-28T18:50:15.385Z,12.21
2022-09-28T18:55:18.472Z,12.19
2022-09-28T19:00:22.732Z,12.21
2022-09-28T19:05:28.708Z,12.10
2022-09-28T19:10:31.488Z,12.13
2022-09-28T19:15:35.910Z,12.13
2022-09-28T19:20:38.687Z,12.05
2022-09-28T19:25:41.415Z,12.03
2022-09-28T19:30:45.802Z,12.08
2022-09-28T19:35:56.214Z,12.04
2022-09-28T19:40:59.334Z,12.01
2022-09-28T19:46:07.204Z,11.99
2022-09-28T19:51:10.468Z,11.94
2022-09-28T19:56:13.374Z,11.89
2022-09-28T20:01:17.615Z,11.87
2022-09-28T20:06:20.395Z,11.83
2022-09-28T20:11:25.120Z,11.82
2022-09-28T20:16:29.894Z,11.81
2022-09-28T20:21:32.672Z,11.84
2022-09-28T20:26:37.647Z,11.80
2022-09-28T20:31:42.623Z,11.69
2022-09-28T20:36:45.304Z,11.68
2022-09-28T20:41:49.060Z,11.72
2022-09-28T20:46:53.495Z,11.76
2022-09-28T20:51:56.219Z,11.80
2022-09-28T20:56:58.910Z,11.81
2022-09-28T21:02:03.179Z,11.79
2022-09-28T21:07:05.945Z,11.71
2022-09-28T21:12:09.183Z,11.60
2022-09-28T21:17:13.309Z,11.56
2022-09-28T21:22:16.033Z,11.59
2022-09-28T21:27:18.800Z,11.58
2022-09-28T21:32:23.179Z,11.59
2022-09-28T21:37:25.883Z,11.58
2022-09-28T21:42:28.617Z,11.59
2022-09-28T21:47:32.760Z,11.60
2022-09-28T21:52:35.920Z,11.55
2022-09-28T21:57:38.613Z,11.55
2022-09-28T22:02:42.913Z,11.57
2022-09-28T22:07:45.682Z,11.60
2022-09-28T22:12:49.982Z,11.60
2022-09-28T22:17:54.119Z,11.59
2022-09-28T22:22:56.868Z,11.55
2022-09-28T22:27:59.615Z,11.54
2022-09-28T22:33:03.771Z,11.55
2022-09-28T22:38:06.519Z,11.54
2022-09-28T22:43:09.291Z,11.52
2022-09-28T22:48:14.571Z,11.49
2022-09-28T22:53:17.478Z,11.50
2022-09-28T22:58:20.232Z,11.43
2022-09-28T23:03:24.643Z,11.38
2022-09-28T23:08:27.639Z,11.36
2022-09-28T23:13:31.133Z,11.31
2022-09-28T23:18:37.702Z,11.30
2022-09-28T23:23:40.504Z,11.31
2022-09-28T23:28:43.899Z,11.32
2022-09-28T23:33:51.256Z,11.35
2022-09-28T23:38:54.514Z,11.37
2022-09-28T23:43:57.283Z,11.41
2022-09-28T23:49:01.394Z,11.43
2022-09-28T23:54:06.589Z,11.42
2022-09-28T23:59:09.349Z,11.38
